Time;durP1;ratioP1;P1;durP2;ratioP2;P2;SDS_P1;SDS_P2;PMS_P1;PMS_P2;Temp;Humidity;BMP_temperature;BMP_pressure;BME280_temperature;BME280_humidity;BME280_pressure;Samples;Min_cycle;Max_cycle;Signal;HPM_P1;HPM_P2
2021/08/30 00:02:12;;;;;;;5.25;2.47;;;;;;;;;;5068650;28;20064;-68
2021/08/30 00:04:40;;;;;;;4.40;2.30;;;;;;;;;;5060007;28;20060;-68
2021/08/30 00:07:06;;;;;;;4.25;2.75;;;;;;;;;;5052512;28;20056;-68
2021/08/30 00:09:33;;;;;;;4.15;2.53;;;;;;;;;;5052682;28;20049;-68
2021/08/30 00:11:59;;;;;;;4.75;2.80;;;;;;;;;;5053043;28;20057;-68
2021/08/30 00:14:26;;;;;;;4.82;2.50;;;;;;;;;;5052306;28;20057;-68
2021/08/30 00:16:52;;;;;;;6.03;2.40;;;;;;;;;;5052783;28;20512;-68
2021/08/30 00:19:19;;;;;;;3.70;2.17;;;;;;;;;;5052960;28;20053;-68
2021/08/30 00:21:46;;;;;;;4.82;2.72;;;;;;;;;;5052657;28;20052;-68
2021/08/30 00:24:13;;;;;;;7.28;2.90;;;;;;;;;;5052255;28;20052;-68
2021/08/30 00:26:39;;;;;;;5.07;2.78;;;;;;;;;;5052643;28;20045;-68
2021/08/30 00:29:06;;;;;;;3.72;2.25;;;;;;;;;;5052860;28;20057;-68
2021/08/30 00:31:32;;;;;;;5.88;2.85;;;;;;;;;;5065914;28;20048;-68
2021/08/30 00:33:58;;;;;;;4.18;2.50;;;;;;;;;;5071313;28;20041;-68
2021/08/30 00:36:25;;;;;;;4.18;2.50;;;;;;;;;;5055826;28;20045;-69
2021/08/30 00:38:54;;;;;;;5.05;2.35;;;;;;;;;;5052109;28;20049;-68
2021/08/30 00:41:21;;;;;;;5.13;2.40;;;;;;;;;;5052514;28;20060;-68
2021/08/30 00:43:47;;;;;;;3.95;2.38;;;;;;;;;;5051781;28;20052;-68
2021/08/30 00:46:16;;;;;;;3.67;2.05;;;;;;;;;;5051926;28;20049;-68
2021/08/30 00:48:46;;;;;;;4.47;2.45;;;;;;;;;;5052037;28;20056;-68
2021/08/30 00:51:12;;;;;;;4.65;2.20;;;;;;;;;;5052480;28;20049;-68
2021/08/30 00:53:39;;;;;;;3.63;2.42;;;;;;;;;;5051680;28;20041;-68
2021/08/30 00:56:07;;;;;;;5.03;2.45;;;;;;;;;;5051865;28;20049;-68
2021/08/30 00:58:33;;;;;;;4.47;2.70;;;;;;;;;;5051942;28;20493;-67
2021/08/30 01:00:59;;;;;;;4.28;2.53;;;;;;;;;;5060619;28;20670;-68
2021/08/30 01:03:26;;;;;;;4.20;2.15;;;;;;;;;;5069465;28;20052;-67
2021/08/30 01:05:56;;;;;;;4.40;2.75;;;;;;;;;;5059546;28;20056;-67
2021/08/30 01:08:26;;;;;;;4.20;2.55;;;;;;;;;;5052099;28;20064;-68
2021/08/30 01:10:56;;;;;;;3.97;2.38;;;;;;;;;;5051284;28;20053;-68
2021/08/30 01:13:28;;;;;;;5.60;2.65;;;;;;;;;;5051188;28;20057;-68
2021/08/30 01:15:55;;;;;;;4.47;2.72;;;;;;;;;;5051631;28;20048;-67
2021/08/30 01:18:23;;;;;;;4.03;2.40;;;;;;;;;;5052001;28;20059;-67
2021/08/30 01:21:02;;;;;;;6.00;2.80;;;;;;;;;;5060695;28;20059;-67
2021/08/30 01:23:30;;;;;;;5.70;2.60;;;;;;;;;;5071522;28;20055;-68
2021/08/30 01:25:58;;;;;;;5.80;2.92;;;;;;;;;;5071333;28;20048;-67
2021/08/30 01:28:31;;;;;;;6.22;2.85;;;;;;;;;;5071679;28;20453;-67
2021/08/30 01:30:59;;;;;;;4.18;2.72;;;;;;;;;;5071367;28;20048;-68
2021/08/30 01:33:27;;;;;;;4.57;2.80;;;;;;;;;;5069413;28;20056;-67
2021/08/30 01:35:54;;;;;;;6.85;2.85;;;;;;;;;;5062911;28;20048;-68
2021/08/30 01:38:20;;;;;;;5.30;2.83;;;;;;;;;;5071367;28;20410;-68
2021/08/30 01:40:47;;;;;;;5.30;2.65;;;;;;;;;;5069228;28;20052;-67
2021/08/30 01:43:14;;;;;;;8.77;3.33;;;;;;;;;;5071168;28;20052;-67
2021/08/30 01:45:40;;;;;;;6.97;3.30;;;;;;;;;;5071504;28;20465;-68
2021/08/30 01:48:07;;;;;;;6.40;3.22;;;;;;;;;;5071041;28;20049;-68
2021/08/30 01:50:38;;;;;;;5.75;2.80;;;;;;;;;;5071777;28;20080;-67
2021/08/30 01:53:06;;;;;;;5.30;2.80;;;;;;;;;;5070849;28;20135;-68
2021/08/30 01:55:38;;;;;;;4.68;2.67;;;;;;;;;;5070819;28;20052;-67
2021/08/30 02:00:51;;;;;;;4.53;2.47;;;;;;;;;;5071182;28;20066;-68
2021/08/30 02:03:19;;;;;;;4.88;2.63;;;;;;;;;;5070825;28;20143;-67
2021/08/30 02:05:49;;;;;;;6.65;3.15;;;;;;;;;;5070451;28;20059;-67
2021/08/30 02:08:15;;;;;;;4.97;2.55;;;;;;;;;;5071043;28;20055;-68
2021/08/30 02:10:44;;;;;;;5.93;2.42;;;;;;;;;;5071322;28;20075;-68
2021/08/30 02:13:11;;;;;;;4.05;2.65;;;;;;;;;;5071028;28;20048;-67
2021/08/30 02:15:37;;;;;;;6.38;2.80;;;;;;;;;;5070789;28;20076;-68
2021/08/30 02:18:10;;;;;;;4.63;2.65;;;;;;;;;;5071166;28;20470;-68
2021/08/30 02:20:38;;;;;;;5.28;2.63;;;;;;;;;;5071017;28;20083;-68
2021/08/30 02:23:06;;;;;;;5.47;2.88;;;;;;;;;;5072736;28;20057;-68
2021/08/30 02:25:33;;;;;;;7.53;2.63;;;;;;;;;;5074713;28;20396;-68
2021/08/30 02:28:01;;;;;;;3.90;2.47;;;;;;;;;;5074539;28;20052;-68
2021/08/30 02:30:30;;;;;;;5.15;3.03;;;;;;;;;;5074816;28;20052;-68
2021/08/30 02:33:01;;;;;;;4.40;2.70;;;;;;;;;;5073083;28;20052;-67
2021/08/30 02:35:30;;;;;;;5.38;3.47;;;;;;;;;;5073053;28;20071;-67
2021/08/30 02:37:58;;;;;;;5.60;2.85;;;;;;;;;;5054550;28;20172;-67
2021/08/30 02:40:27;;;;;;;5.50;3.30;;;;;;;;;;5068780;28;20044;-67
2021/08/30 02:42:55;;;;;;;7.65;3.38;;;;;;;;;;5074534;28;20056;-67
2021/08/30 02:45:22;;;;;;;5.53;3.25;;;;;;;;;;5073695;28;20052;-67
2021/08/30 02:47:50;;;;;;;6.53;2.85;;;;;;;;;;5074198;28;20053;-68
2021/08/30 02:50:17;;;;;;;5.53;2.88;;;;;;;;;;5074411;28;20052;-67
2021/08/30 02:52:45;;;;;;;5.15;3.10;;;;;;;;;;5074352;28;20716;-67
2021/08/30 02:55:11;;;;;;;6.93;3.22;;;;;;;;;;5073840;28;20055;-67
2021/08/30 02:57:40;;;;;;;5.43;3.20;;;;;;;;;;5074339;28;20052;-68
2021/08/30 03:00:08;;;;;;;6.40;2.92;;;;;;;;;;5073728;28;20048;-67
2021/08/30 03:02:34;;;;;;;6.10;3.03;;;;;;;;;;5074161;28;20049;-67
2021/08/30 03:05:01;;;;;;;5.68;3.28;;;;;;;;;;5073729;28;20476;-67
2021/08/30 03:07:30;;;;;;;4.65;2.90;;;;;;;;;;5074104;28;20139;-67
2021/08/30 03:09:56;;;;;;;4.63;3.20;;;;;;;;;;5074474;28;20135;-67
2021/08/30 03:12:23;;;;;;;4.07;2.85;;;;;;;;;;5073900;28;20056;-67
2021/08/30 03:14:53;;;;;;;4.75;2.65;;;;;;;;;;5073293;28;20060;-67
2021/08/30 03:17:21;;;;;;;5.88;2.85;;;;;;;;;;5073815;28;20048;-67
2021/08/30 03:19:48;;;;;;;5.85;2.88;;;;;;;;;;5074018;28;20071;-68
2021/08/30 03:22:16;;;;;;;4.22;3.00;;;;;;;;;;5073599;28;20048;-67
2021/08/30 03:24:43;;;;;;;4.45;2.50;;;;;;;;;;5073581;28;20366;-67
2021/08/30 03:27:10;;;;;;;5.93;2.80;;;;;;;;;;5073387;28;20565;-67
2021/08/30 03:29:38;;;;;;;4.97;3.00;;;;;;;;;;5073970;28;20496;-68
2021/08/30 03:32:07;;;;;;;4.63;3.03;;;;;;;;;;5073762;28;20055;-67
2021/08/30 03:34:34;;;;;;;3.55;2.22;;;;;;;;;;5071331;28;20048;-67
2021/08/30 03:37:01;;;;;;;4.13;2.45;;;;;;;;;;5067566;28;20477;-67
2021/08/30 03:39:27;;;;;;;4.05;2.45;;;;;;;;;;5053239;28;20051;-67
2021/08/30 03:41:54;;;;;;;4.55;2.30;;;;;;;;;;5053443;28;20378;-67
2021/08/30 03:44:21;;;;;;;4.43;2.40;;;;;;;;;;5053095;28;20049;-67
2021/08/30 03:46:47;;;;;;;4.65;2.50;;;;;;;;;;5052856;28;20044;-67
2021/08/30 03:49:15;;;;;;;5.57;3.08;;;;;;;;;;5057828;28;20095;-68
2021/08/30 03:51:42;;;;;;;4.10;2.17;;;;;;;;;;5072884;28;20138;-67
2021/08/30 03:54:10;;;;;;;5.35;3.13;;;;;;;;;;5072562;28;20366;-68
2021/08/30 03:56:37;;;;;;;4.60;2.58;;;;;;;;;;5072758;28;20165;-67
2021/08/30 03:59:04;;;;;;;6.95;3.05;;;;;;;;;;5072993;28;20496;-68
2021/08/30 04:01:31;;;;;;;5.53;2.67;;;;;;;;;;5072808;28;20481;-68
2021/08/30 04:03:59;;;;;;;4.93;2.50;;;;;;;;;;5072495;28;20438;-68
2021/08/30 04:06:30;;;;;;;4.35;2.83;;;;;;;;;;5072244;28;20052;-68
2021/08/30 04:08:56;;;;;;;5.45;2.80;;;;;;;;;;5072906;28;20058;-68
2021/08/30 04:11:23;;;;;;;5.10;2.55;;;;;;;;;;5072665;28;20488;-68
2021/08/30 04:13:49;;;;;;;4.63;2.58;;;;;;;;;;5071824;28;20052;-68
2021/08/30 04:16:16;;;;;;;4.30;2.80;;;;;;;;;;5072195;28;20047;-68
2021/08/30 04:18:42;;;;;;;4.45;2.38;;;;;;;;;;5072131;28;20048;-68
2021/08/30 04:21:09;;;;;;;5.32;2.65;;;;;;;;;;5071949;28;20055;-68
2021/08/30 04:23:37;;;;;;;4.38;2.63;;;;;;;;;;5071768;28;20404;-68
2021/08/30 04:26:03;;;;;;;6.68;2.78;;;;;;;;;;5072231;28;20049;-68
2021/08/30 04:28:30;;;;;;;5.10;2.40;;;;;;;;;;5072156;28;20499;-68
2021/08/30 04:30:56;;;;;;;3.88;2.25;;;;;;;;;;5072432;28;20083;-68
2021/08/30 04:33:23;;;;;;;5.68;2.55;;;;;;;;;;5071709;28;20052;-68
2021/08/30 04:35:51;;;;;;;4.53;2.45;;;;;;;;;;5070224;28;20505;-68
2021/08/30 04:38:17;;;;;;;4.13;2.47;;;;;;;;;;5064357;28;20048;-68
2021/08/30 04:40:45;;;;;;;6.63;2.58;;;;;;;;;;5071250;28;20366;-68
2021/08/30 04:43:12;;;;;;;5.05;2.38;;;;;;;;;;5071751;28;20384;-68
2021/08/30 04:45:39;;;;;;;3.50;2.30;;;;;;;;;;5071047;28;20052;-68
2021/08/30 04:48:06;;;;;;;4.93;2.45;;;;;;;;;;5071612;28;20044;-68
2021/08/30 04:50:33;;;;;;;4.13;2.50;;;;;;;;;;5071267;28;20052;-68
2021/08/30 04:52:59;;;;;;;5.70;2.65;;;;;;;;;;5071712;28;20055;-68
2021/08/30 04:55:26;;;;;;;5.30;2.53;;;;;;;;;;5071676;28;20063;-68
2021/08/30 04:57:53;;;;;;;4.88;2.63;;;;;;;;;;5071392;28;20045;-68
2021/08/30 05:00:20;;;;;;;5.40;2.35;;;;;;;;;;5071499;28;20063;-68
2021/08/30 05:02:46;;;;;;;5.30;2.13;;;;;;;;;;5071160;28;20052;-68
2021/08/30 05:05:13;;;;;;;3.92;2.38;;;;;;;;;;5071524;28;20048;-68
2021/08/30 05:07:39;;;;;;;3.05;1.83;;;;;;;;;;5071168;28;20059;-68
2021/08/30 05:10:06;;;;;;;4.88;2.85;;;;;;;;;;5063839;28;20056;-68
2021/08/30 05:12:33;;;;;;;4.43;2.35;;;;;;;;;;5051250;28;20052;-68
2021/08/30 05:15:01;;;;;;;5.47;2.67;;;;;;;;;;5051156;28;20049;-68
2021/08/30 05:17:27;;;;;;;6.68;2.88;;;;;;;;;;5050813;28;20053;-68
2021/08/30 05:19:54;;;;;;;4.93;2.22;;;;;;;;;;5062054;28;20056;-68
2021/08/30 05:22:20;;;;;;;4.45;2.45;;;;;;;;;;5071476;28;20056;-69
2021/08/30 05:24:47;;;;;;;6.22;2.22;;;;;;;;;;5071172;28;20045;-68
2021/08/30 05:27:13;;;;;;;4.28;2.10;;;;;;;;;;5071355;28;20128;-70
2021/08/30 05:29:39;;;;;;;3.47;1.83;;;;;;;;;;5071085;28;20052;-68
2021/08/30 05:32:08;;;;;;;4.55;1.98;;;;;;;;;;5070076;28;20060;-68
2021/08/30 05:34:34;;;;;;;2.40;1.75;;;;;;;;;;5062533;28;20049;-68
2021/08/30 05:37:01;;;;;;;2.88;1.48;;;;;;;;;;5069453;28;20044;-68
2021/08/30 05:39:27;;;;;;;2.05;1.08;;;;;;;;;;5054728;28;20528;-68
2021/08/30 05:41:54;;;;;;;1.95;1.23;;;;;;;;;;5071524;28;20063;-68
2021/08/30 05:44:20;;;;;;;3.83;1.80;;;;;;;;;;5070694;28;20049;-68
2021/08/30 05:46:47;;;;;;;2.25;1.50;;;;;;;;;;5070845;28;20052;-68
2021/08/30 05:49:15;;;;;;;4.90;2.25;;;;;;;;;;5070698;28;20472;-68
2021/08/30 05:51:41;;;;;;;3.17;1.40;;;;;;;;;;5070723;28;20500;-68
2021/08/30 05:54:08;;;;;;;2.78;1.20;;;;;;;;;;5062262;28;20049;-68
2021/08/30 05:56:34;;;;;;;2.47;1.45;;;;;;;;;;5072073;28;20423;-68
2021/08/30 05:59:01;;;;;;;3.08;1.40;;;;;;;;;;5075000;28;20052;-68
2021/08/30 06:01:27;;;;;;;3.25;1.55;;;;;;;;;;5073007;28;20059;-68
2021/08/30 06:03:54;;;;;;;2.55;1.48;;;;;;;;;;5074179;28;20048;-68
2021/08/30 06:06:21;;;;;;;3.22;1.70;;;;;;;;;;5063629;28;20059;-68
2021/08/30 06:08:48;;;;;;;2.58;1.67;;;;;;;;;;5065402;28;20040;-68
2021/08/30 06:11:14;;;;;;;3.28;1.75;;;;;;;;;;5064304;28;20051;-68
2021/08/30 06:13:41;;;;;;;4.07;2.20;;;;;;;;;;5073741;28;20778;-68
2021/08/30 06:16:07;;;;;;;3.47;1.40;;;;;;;;;;5071225;28;20051;-68
2021/08/30 06:18:34;;;;;;;2.83;1.70;;;;;;;;;;5071290;28;20048;-68
2021/08/30 06:21:00;;;;;;;3.78;2.00;;;;;;;;;;5072272;28;20056;-68
2021/08/30 06:23:30;;;;;;;4.15;1.60;;;;;;;;;;5074610;28;20056;-68
2021/08/30 06:25:58;;;;;;;3.35;1.50;;;;;;;;;;5064925;28;20051;-68
2021/08/30 06:28:25;;;;;;;4.32;1.73;;;;;;;;;;5072349;28;20084;-68
2021/08/30 06:30:51;;;;;;;4.13;1.73;;;;;;;;;;5073263;28;20446;-68
2021/08/30 06:33:18;;;;;;;3.50;1.60;;;;;;;;;;5066463;28;20063;-68
2021/08/30 06:35:44;;;;;;;3.95;1.60;;;;;;;;;;5071056;28;20064;-68
2021/08/30 06:38:11;;;;;;;2.60;1.23;;;;;;;;;;5072449;28;20040;-68
2021/08/30 06:40:39;;;;;;;4.25;1.50;;;;;;;;;;5070145;28;20186;-68
2021/08/30 06:43:05;;;;;;;3.20;1.45;;;;;;;;;;5065497;28;20428;-68
2021/08/30 06:45:32;;;;;;;4.82;1.80;;;;;;;;;;5066707;28;20049;-68
2021/08/30 06:47:59;;;;;;;3.28;1.40;;;;;;;;;;5074075;28;20055;-68
2021/08/30 06:50:26;;;;;;;4.63;2.00;;;;;;;;;;5073586;28;20051;-68
2021/08/30 06:52:53;;;;;;;2.47;1.23;;;;;;;;;;5062286;28;20469;-65
2021/08/30 06:55:20;;;;;;;2.72;1.38;;;;;;;;;;5063863;28;20064;-68
2021/08/30 06:57:48;;;;;;;1.25;0.82;;;;;;;;;;5073077;28;20048;-69
2021/08/30 07:00:17;;;;;;;1.48;0.77;;;;;;;;;;5074119;28;20090;-68
2021/08/30 07:02:43;;;;;;;1.17;0.60;;;;;;;;;;5073811;28;20048;-70
2021/08/30 07:05:10;;;;;;;2.65;0.60;;;;;;;;;;5073809;28;20520;-68
2021/08/30 07:07:37;;;;;;;1.90;0.85;;;;;;;;;;5072442;28;20049;-68
2021/08/30 07:10:04;;;;;;;1.00;0.65;;;;;;;;;;5072677;28;20044;-68
2021/08/30 07:12:30;;;;;;;1.13;0.70;;;;;;;;;;5073524;28;20484;-68
2021/08/30 07:14:58;;;;;;;1.50;0.50;;;;;;;;;;5073601;28;20052;-68
2021/08/30 07:17:24;;;;;;;1.02;0.60;;;;;;;;;;5073491;28;20052;-68
2021/08/30 07:19:51;;;;;;;1.73;0.75;;;;;;;;;;5072746;28;20056;-68
2021/08/30 07:22:18;;;;;;;0.93;0.50;;;;;;;;;;5073581;28;20109;-68
2021/08/30 07:24:45;;;;;;;1.58;0.60;;;;;;;;;;5074122;28;20049;-68
2021/08/30 07:27:11;;;;;;;4.75;1.15;;;;;;;;;;5073800;28;20054;-68
2021/08/30 07:29:38;;;;;;;0.90;0.70;;;;;;;;;;5073934;28;20067;-68
2021/08/30 07:32:07;;;;;;;0.50;0.38;;;;;;;;;;5073982;28;20051;-68
2021/08/30 07:34:33;;;;;;;0.77;0.55;;;;;;;;;;5073835;28;20049;-68
2021/08/30 07:37:00;;;;;;;0.98;0.50;;;;;;;;;;5073361;28;20052;-68
2021/08/30 07:39:26;;;;;;;0.40;0.30;;;;;;;;;;5071749;28;20437;-68
2021/08/30 07:41:52;;;;;;;0.43;0.25;;;;;;;;;;5065393;28;20045;-68
2021/08/30 07:44:19;;;;;;;1.20;0.38;;;;;;;;;;5073840;28;20051;-68
2021/08/30 07:46:45;;;;;;;2.13;0.32;;;;;;;;;;5073354;28;20052;-68
2021/08/30 07:49:13;;;;;;;2.10;0.70;;;;;;;;;;5073488;28;20041;-67
2021/08/30 07:51:40;;;;;;;1.02;0.77;;;;;;;;;;5073277;28;20056;-68
2021/08/30 07:54:07;;;;;;;0.43;0.30;;;;;;;;;;5073110;28;20044;-68
2021/08/30 07:56:38;;;;;;;2.13;0.38;;;;;;;;;;5073477;28;20397;-68
2021/08/30 07:59:04;;;;;;;0.75;0.40;;;;;;;;;;5073422;28;20380;-68
2021/08/30 08:01:30;;;;;;;0.68;0.35;;;;;;;;;;5073312;28;20489;-68
2021/08/30 08:03:57;;;;;;;0.63;0.30;;;;;;;;;;5072649;28;20052;-68
2021/08/30 08:06:25;;;;;;;2.75;0.45;;;;;;;;;;5073288;28;20049;-68
2021/08/30 08:08:51;;;;;;;2.45;0.40;;;;;;;;;;5052982;28;20095;-68
2021/08/30 08:11:18;;;;;;;1.77;0.68;;;;;;;;;;5053307;28;20482;-68
2021/08/30 08:13:44;;;;;;;2.47;0.30;;;;;;;;;;5053205;28;20052;-68
2021/08/30 08:16:11;;;;;;;1.55;0.40;;;;;;;;;;5053000;28;20053;-68
2021/08/30 08:18:37;;;;;;;7.38;0.77;;;;;;;;;;5056712;28;20052;-68
2021/08/30 08:21:05;;;;;;;1.75;0.50;;;;;;;;;;5072577;28;20049;-68
2021/08/30 08:23:33;;;;;;;1.73;0.50;;;;;;;;;;5072964;28;20052;-68
2021/08/30 08:26:00;;;;;;;1.15;0.40;;;;;;;;;;5073160;28;20048;-68
2021/08/30 08:28:26;;;;;;;0.73;0.40;;;;;;;;;;5072890;28;20602;-68
2021/08/30 08:30:53;;;;;;;0.60;0.30;;;;;;;;;;5072901;28;20079;-68
2021/08/30 08:33:19;;;;;;;0.05;0.05;;;;;;;;;;5072721;28;20453;-68
2021/08/30 08:35:46;;;;;;;0.90;0.30;;;;;;;;;;5072391;28;20060;-68
2021/08/30 08:38:13;;;;;;;1.83;0.30;;;;;;;;;;5072068;28;20048;-68
2021/08/30 08:40:41;;;;;;;0.73;0.40;;;;;;;;;;5071300;28;20051;-68
2021/08/30 08:43:12;;;;;;;3.40;0.50;;;;;;;;;;5064136;28;20041;-68
2021/08/30 08:45:38;;;;;;;0.47;0.30;;;;;;;;;;5072258;28;20091;-68
2021/08/30 08:48:05;;;;;;;1.55;0.30;;;;;;;;;;5071875;28;20066;-68
2021/08/30 08:50:31;;;;;;;1.23;0.38;;;;;;;;;;5069793;28;20052;-69
2021/08/30 08:52:58;;;;;;;2.80;0.43;;;;;;;;;;5072121;28;20048;-68
2021/08/30 08:55:25;;;;;;;0.32;0.32;;;;;;;;;;5072487;28;20492;-68
2021/08/30 08:57:53;;;;;;;2.78;0.50;;;;;;;;;;5072261;28;20045;-68
2021/08/30 09:00:21;;;;;;;1.02;0.47;;;;;;;;;;5072179;28;20048;-68
2021/08/30 09:02:50;;;;;;;0.45;0.30;;;;;;;;;;5071916;28;20048;-68
2021/08/30 09:05:23;;;;;;;2.50;0.80;;;;;;;;;;5072401;28;20055;-68
2021/08/30 09:07:50;;;;;;;2.78;0.70;;;;;;;;;;5072167;28;20056;-68
2021/08/30 09:10:18;;;;;;;2.80;0.88;;;;;;;;;;5071925;28;20052;-68
2021/08/30 09:12:47;;;;;;;1.00;0.60;;;;;;;;;;5072049;28;20052;-68
2021/08/30 09:15:19;;;;;;;2.83;0.57;;;;;;;;;;5072125;28;20397;-69
2021/08/30 09:17:49;;;;;;;1.90;0.30;;;;;;;;;;5071919;28;20500;-68
2021/08/30 09:20:16;;;;;;;0.70;0.40;;;;;;;;;;5071838;28;20481;-68
2021/08/30 09:22:42;;;;;;;2.05;0.43;;;;;;;;;;5071502;28;20401;-68
2021/08/30 09:25:11;;;;;;;2.47;0.80;;;;;;;;;;5071998;28;20075;-68
2021/08/30 09:27:39;;;;;;;0.60;0.30;;;;;;;;;;5071931;28;20052;-68
2021/08/30 09:30:07;;;;;;;0.73;0.30;;;;;;;;;;5072124;28;20045;-68
2021/08/30 09:32:35;;;;;;;0.40;0.30;;;;;;;;;;5071414;28;20053;-68
2021/08/30 09:35:04;;;;;;;3.42;0.57;;;;;;;;;;5071597;28;20059;-68
2021/08/30 09:37:35;;;;;;;2.50;0.50;;;;;;;;;;5072002;28;20053;-68
2021/08/30 09:40:03;;;;;;;10.30;1.05;;;;;;;;;;5070974;28;20052;-68
2021/08/30 09:42:31;;;;;;;2.90;0.47;;;;;;;;;;5070101;28;20750;-68
2021/08/30 09:45:09;;;;;;;0.77;0.40;;;;;;;;;;5064516;28;20053;-68
2021/08/30 09:47:37;;;;;;;2.78;0.73;;;;;;;;;;5071754;28;20048;-65
2021/08/30 09:50:04;;;;;;;0.57;0.25;;;;;;;;;;5067779;28;20491;-66
2021/08/30 09:52:31;;;;;;;0.93;0.40;;;;;;;;;;5065623;28;20048;-68
2021/08/30 09:54:57;;;;;;;1.90;0.60;;;;;;;;;;5062894;28;20057;-68
2021/08/30 09:57:27;;;;;;;1.65;0.47;;;;;;;;;;5069349;28;20072;-66
2021/08/30 09:59:55;;;;;;;1.42;0.60;;;;;;;;;;5068372;28;20060;-66
2021/08/30 10:02:28;;;;;;;1.10;0.55;;;;;;;;;;5066198;28;20255;-68
2021/08/30 10:04:59;;;;;;;2.17;0.45;;;;;;;;;;5064179;28;20045;-69
2021/08/30 10:07:25;;;;;;;2.65;0.40;;;;;;;;;;5069211;28;20052;-66
2021/08/30 10:09:52;;;;;;;1.27;0.65;;;;;;;;;;5067876;28;20048;-66
2021/08/30 10:12:18;;;;;;;1.10;0.50;;;;;;;;;;5063672;28;20057;-66
2021/08/30 10:14:45;;;;;;;1.73;0.50;;;;;;;;;;5062098;28;20862;-66
2021/08/30 10:17:12;;;;;;;1.00;0.50;;;;;;;;;;5062802;28;20056;-67
2021/08/30 10:19:40;;;;;;;2.67;0.63;;;;;;;;;;5064234;28;20465;-69
2021/08/30 10:22:17;;;;;;;2.92;0.60;;;;;;;;;;5063088;28;20049;-67
2021/08/30 10:24:45;;;;;;;0.90;0.47;;;;;;;;;;5062797;28;20049;-67
2021/08/30 10:27:14;;;;;;;0.80;0.45;;;;;;;;;;5062544;28;20500;-67
2021/08/30 10:29:42;;;;;;;2.38;0.60;;;;;;;;;;5062757;28;20072;-67
2021/08/30 10:32:20;;;;;;;0.73;0.50;;;;;;;;;;5063236;28;20040;-67
2021/08/30 10:34:47;;;;;;;1.67;0.70;;;;;;;;;;5064356;28;20458;-67
2021/08/30 10:37:19;;;;;;;2.50;0.70;;;;;;;;;;5063118;28;20045;-67
2021/08/30 10:39:47;;;;;;;1.77;0.50;;;;;;;;;;5067923;28;20095;-67
2021/08/30 10:42:14;;;;;;;0.82;0.52;;;;;;;;;;5068153;28;20075;-70
2021/08/30 10:44:49;;;;;;;2.50;0.50;;;;;;;;;;5069543;28;20048;-68
2021/08/30 10:47:16;;;;;;;3.10;0.57;;;;;;;;;;5073264;28;20072;-68
2021/08/30 10:49:43;;;;;;;2.42;0.60;;;;;;;;;;5073363;28;20056;-68
2021/08/30 10:52:12;;;;;;;1.30;0.55;;;;;;;;;;5071682;28;20631;-68
2021/08/30 10:54:51;;;;;;;1.05;0.50;;;;;;;;;;5065995;28;20067;-68
2021/08/30 10:57:17;;;;;;;0.90;0.52;;;;;;;;;;5074717;28;20421;-68
2021/08/30 10:59:47;;;;;;;2.75;0.70;;;;;;;;;;5066069;28;20055;-68
2021/08/30 11:02:15;;;;;;;4.43;0.70;;;;;;;;;;5067563;28;20539;-68
2021/08/30 11:04:43;;;;;;;1.10;0.55;;;;;;;;;;5072630;28;20041;-68
2021/08/30 11:07:09;;;;;;;1.17;0.50;;;;;;;;;;5073249;28;20464;-68
2021/08/30 11:09:36;;;;;;;1.45;0.68;;;;;;;;;;5072226;28;20052;-68
2021/08/30 11:12:11;;;;;;;0.82;0.40;;;;;;;;;;5063704;28;20060;-68
2021/08/30 11:14:38;;;;;;;3.17;0.88;;;;;;;;;;5063056;28;20049;-68
2021/08/30 11:17:05;;;;;;;1.20;0.40;;;;;;;;;;5058206;28;20507;-68
2021/08/30 11:19:31;;;;;;;2.67;0.60;;;;;;;;;;5068191;28;20041;-68
2021/08/30 11:21:59;;;;;;;0.45;0.45;;;;;;;;;;5070685;28;20469;-68
2021/08/30 11:24:28;;;;;;;2.65;0.60;;;;;;;;;;5074699;28;20083;-68
2021/08/30 11:26:56;;;;;;;1.73;0.63;;;;;;;;;;5074687;28;20099;-68
2021/08/30 11:29:24;;;;;;;1.60;0.68;;;;;;;;;;5074948;28;20049;-68
2021/08/30 11:31:52;;;;;;;6.95;0.80;;;;;;;;;;5074986;28;20055;-68
2021/08/30 11:34:27;;;;;;;2.33;0.70;;;;;;;;;;5074733;28;20048;-68
2021/08/30 11:36:55;;;;;;;1.08;0.60;;;;;;;;;;5070974;28;20044;-68
2021/08/30 11:39:22;;;;;;;1.50;0.40;;;;;;;;;;5071445;28;20048;-68
2021/08/30 11:41:53;;;;;;;1.27;0.50;;;;;;;;;;5065790;28;20041;-66
2021/08/30 11:44:19;;;;;;;0.93;0.50;;;;;;;;;;5074498;28;20411;-65
2021/08/30 11:46:49;;;;;;;2.67;0.60;;;;;;;;;;5056672;28;20476;-66
2021/08/30 11:49:16;;;;;;;4.15;0.80;;;;;;;;;;5069662;28;20055;-65
2021/08/30 11:51:43;;;;;;;0.57;0.32;;;;;;;;;;5071297;28;20044;-67
2021/08/30 11:54:11;;;;;;;1.60;0.50;;;;;;;;;;5065063;28;20052;-67
2021/08/30 11:56:38;;;;;;;1.58;0.82;;;;;;;;;;5073142;28;20052;-67
2021/08/30 11:59:04;;;;;;;2.40;0.63;;;;;;;;;;5066136;28;20048;-69
2021/08/30 12:01:37;;;;;;;1.58;0.57;;;;;;;;;;5065536;28;20049;-67
2021/08/30 12:04:14;;;;;;;1.40;0.50;;;;;;;;;;5072411;28;20083;-67
2021/08/30 12:06:47;;;;;;;1.17;0.57;;;;;;;;;;5073770;28;20059;-67
2021/08/30 12:09:14;;;;;;;1.50;0.60;;;;;;;;;;5074271;28;20048;-67
2021/08/30 12:11:46;;;;;;;2.88;0.85;;;;;;;;;;5071451;28;20127;-67
2021/08/30 12:14:12;;;;;;;0.77;0.50;;;;;;;;;;5063032;28;20048;-67
2021/08/30 12:16:39;;;;;;;0.77;0.50;;;;;;;;;;5067277;28;20063;-67
2021/08/30 12:19:08;;;;;;;1.00;0.50;;;;;;;;;;5074406;28;20049;-67
2021/08/30 12:21:37;;;;;;;0.90;0.60;;;;;;;;;;5064367;28;20421;-65
2021/08/30 12:24:04;;;;;;;4.90;1.45;;;;;;;;;;5054484;28;20045;-65
2021/08/30 12:26:30;;;;;;;0.63;0.47;;;;;;;;;;5063168;28;20516;-65
2021/08/30 12:28:57;;;;;;;1.98;0.68;;;;;;;;;;5073571;28;20047;-65
2021/08/30 12:31:25;;;;;;;1.48;0.52;;;;;;;;;;5066256;28;20067;-67
2021/08/30 12:34:01;;;;;;;1.98;0.60;;;;;;;;;;5064812;28;20076;-65
2021/08/30 12:36:29;;;;;;;3.10;0.50;;;;;;;;;;5070761;28;20044;-66
2021/08/30 12:38:55;;;;;;;1.88;0.50;;;;;;;;;;5066544;28;20056;-65
2021/08/30 12:41:22;;;;;;;1.00;0.43;;;;;;;;;;5064936;28;20055;-65
2021/08/30 12:43:48;;;;;;;1.58;0.63;;;;;;;;;;5071222;28;20056;-67
2021/08/30 12:46:15;;;;;;;1.95;0.70;;;;;;;;;;5072917;28;20048;-68
2021/08/30 12:48:42;;;;;;;2.47;0.90;;;;;;;;;;5072851;28;20059;-68
2021/08/30 12:51:10;;;;;;;2.08;0.70;;;;;;;;;;5072720;28;20485;-69
2021/08/30 12:53:38;;;;;;;1.23;0.60;;;;;;;;;;5072063;28;20051;-68
2021/08/30 12:56:05;;;;;;;1.63;0.90;;;;;;;;;;5072145;28;20048;-68
2021/08/30 12:58:31;;;;;;;0.57;0.40;;;;;;;;;;5072440;28;20049;-69
2021/08/30 13:00:58;;;;;;;0.55;0.40;;;;;;;;;;5072040;28;20408;-68
2021/08/30 13:03:25;;;;;;;0.63;0.60;;;;;;;;;;5070706;28;20052;-68
2021/08/30 13:05:51;;;;;;;1.35;0.60;;;;;;;;;;5063858;28;20382;-67
2021/08/30 13:08:18;;;;;;;2.40;0.68;;;;;;;;;;5072472;28;20084;-68
2021/08/30 13:10:47;;;;;;;1.10;0.85;;;;;;;;;;5069412;28;20485;-65
2021/08/30 13:13:15;;;;;;;1.13;0.60;;;;;;;;;;5070161;28;20052;-68
2021/08/30 13:15:43;;;;;;;1.67;0.68;;;;;;;;;;5070521;28;20063;-68
2021/08/30 13:18:10;;;;;;;1.23;0.68;;;;;;;;;;5063965;28;20131;-68
2021/08/30 13:20:39;;;;;;;3.70;1.00;;;;;;;;;;5071559;28;20044;-68
2021/08/30 13:23:05;;;;;;;2.17;0.80;;;;;;;;;;5066121;28;20053;-68
2021/08/30 13:25:32;;;;;;;1.23;1.00;;;;;;;;;;5072602;28;20496;-68
2021/08/30 13:28:00;;;;;;;1.77;0.75;;;;;;;;;;5072717;28;20052;-68
2021/08/30 13:30:28;;;;;;;1.08;0.63;;;;;;;;;;5071730;28;20048;-68
2021/08/30 13:32:55;;;;;;;1.08;0.60;;;;;;;;;;5064151;28;20048;-68
2021/08/30 13:35:23;;;;;;;1.02;0.70;;;;;;;;;;5070885;28;20055;-68
2021/08/30 13:37:52;;;;;;;1.83;0.77;;;;;;;;;;5063835;28;20457;-68
2021/08/30 13:40:19;;;;;;;1.50;0.80;;;;;;;;;;5072291;28;20041;-68
2021/08/30 13:42:46;;;;;;;1.05;0.60;;;;;;;;;;5071704;28;20072;-68
2021/08/30 13:45:14;;;;;;;1.45;0.80;;;;;;;;;;5070661;28;20056;-68
2021/08/30 13:47:42;;;;;;;2.28;1.35;;;;;;;;;;5069000;28;20045;-68
2021/08/30 13:50:09;;;;;;;1.38;0.95;;;;;;;;;;5071765;28;20052;-68
2021/08/30 13:52:36;;;;;;;1.55;0.98;;;;;;;;;;5071413;28;20389;-68
2021/08/30 13:55:04;;;;;;;2.05;0.88;;;;;;;;;;5071686;28;20049;-68
2021/08/30 13:57:30;;;;;;;1.60;1.00;;;;;;;;;;5071451;28;20056;-68
2021/08/30 13:59:56;;;;;;;2.83;0.98;;;;;;;;;;5077253;28;20048;-69
2021/08/30 14:02:24;;;;;;;2.80;0.70;;;;;;;;;;5072597;28;20044;-68
2021/08/30 14:04:51;;;;;;;1.08;0.60;;;;;;;;;;5071054;28;20504;-68
2021/08/30 14:07:17;;;;;;;2.50;0.75;;;;;;;;;;5065351;28;20470;-68
2021/08/30 14:09:44;;;;;;;1.00;0.50;;;;;;;;;;5071785;28;20051;-68
2021/08/30 14:12:11;;;;;;;1.98;0.80;;;;;;;;;;5073575;28;20057;-68
2021/08/30 14:14:37;;;;;;;2.42;0.77;;;;;;;;;;5063103;28;20405;-68
2021/08/30 14:17:04;;;;;;;3.38;0.98;;;;;;;;;;5053761;28;20049;-68
2021/08/30 14:19:32;;;;;;;1.85;0.70;;;;;;;;;;5071593;28;20048;-68
2021/08/30 14:21:59;;;;;;;5.53;1.10;;;;;;;;;;5057900;28;20053;-68
2021/08/30 14:24:26;;;;;;;1.38;0.65;;;;;;;;;;5063852;28;20052;-71
2021/08/30 14:26:52;;;;;;;1.08;0.63;;;;;;;;;;5077587;28;20499;-68
2021/08/30 14:29:20;;;;;;;2.25;0.50;;;;;;;;;;5077781;28;20055;-68
2021/08/30 14:31:46;;;;;;;3.20;0.60;;;;;;;;;;5077438;28;20055;-68
2021/08/30 14:34:13;;;;;;;2.55;0.60;;;;;;;;;;5076777;28;20075;-68
2021/08/30 14:36:40;;;;;;;0.77;0.43;;;;;;;;;;5076856;28;20409;-68
2021/08/30 14:39:07;;;;;;;2.45;0.68;;;;;;;;;;5071278;28;20045;-67
2021/08/30 14:41:34;;;;;;;3.42;0.80;;;;;;;;;;5073743;28;20045;-68
2021/08/30 14:44:00;;;;;;;1.88;0.60;;;;;;;;;;5074238;28;20063;-68
2021/08/30 14:46:27;;;;;;;2.28;0.75;;;;;;;;;;5073003;28;20087;-67
2021/08/30 14:48:53;;;;;;;1.13;0.50;;;;;;;;;;5076144;28;20127;-68